createdAt,value
2022-11-17T00:00:41.850Z,9.20
2022-11-17T00:03:15.618Z,9.20
2022-11-17T00:05:43.751Z,9.20
2022-11-17T00:08:11.788Z,9.20
2022-11-17T00:10:39.887Z,9.10
2022-11-17T00:13:21.782Z,9.10
2022-11-17T00:15:49.779Z,9.00
2022-11-17T00:18:36.419Z,9.00
2022-11-17T00:21:21.285Z,8.90
2022-11-17T00:23:50.045Z,8.90
2022-11-17T00:26:20.549Z,8.90
2022-11-17T00:28:48.526Z,9.00
2022-11-17T00:31:34.121Z,9.20
2022-11-17T00:34:06.190Z,9.30
2022-11-17T00:36:36.585Z,9.20
2022-11-17T00:39:05.248Z,9.20
2022-11-17T00:41:33.396Z,9.30
2022-11-17T00:44:01.422Z,9.30
2022-11-17T00:46:29.405Z,9.30
2022-11-17T00:48:57.561Z,9.40
2022-11-17T00:51:26.928Z,9.50
2022-11-17T00:53:55.552Z,9.50
2022-11-17T00:56:23.797Z,9.50
2022-11-17T00:58:52.053Z,9.40
2022-11-17T01:01:20.319Z,9.30
2022-11-17T01:03:48.764Z,9.30
2022-11-17T01:06:21.281Z,9.30
2022-11-17T01:08:50.627Z,9.30
2022-11-17T01:11:20.248Z,9.30
2022-11-17T01:13:48.899Z,9.30
2022-11-17T01:16:19.947Z,9.30
2022-11-17T01:18:50.195Z,9.20
2022-11-17T01:21:20.636Z,9.10
2022-11-17T01:23:51.526Z,9.00
2022-11-17T01:26:21.543Z,8.90
2022-11-17T01:28:50.354Z,8.90
2022-11-17T01:31:20.417Z,8.90
2022-11-17T01:33:49.313Z,8.90
2022-11-17T01:36:19.088Z,8.90
2022-11-17T01:38:47.328Z,8.80
2022-11-17T01:41:19.516Z,8.80
2022-11-17T01:43:49.192Z,8.90
2022-11-17T01:46:26.820Z,8.90
2022-11-17T01:48:58.921Z,8.90
2022-11-17T01:51:28.625Z,9.00
2022-11-17T01:53:56.714Z,9.00
2022-11-17T01:56:29.351Z,9.20
2022-11-17T01:59:02.887Z,9.30
2022-11-17T02:01:31.248Z,9.30
2022-11-17T02:03:59.434Z,9.30
2022-11-17T02:06:32.435Z,9.30
2022-11-17T02:09:02.112Z,9.30
2022-11-17T02:11:36.085Z,9.40
2022-11-17T02:14:05.985Z,9.30
2022-11-17T02:16:33.979Z,9.20
2022-11-17T02:19:02.007Z,9.20
2022-11-17T02:21:51.103Z,9.20
2022-11-17T02:24:52.549Z,9.10
2022-11-17T02:27:43.769Z,9.00
2022-11-17T02:30:13.769Z,9.00
2022-11-17T02:32:53.082Z,9.00
2022-11-17T02:35:27.819Z,8.80
2022-11-17T02:38:04.560Z,8.70
2022-11-17T02:40:34.893Z,8.50
2022-11-17T02:43:28.305Z,8.30
2022-11-17T02:46:01.970Z,8.10
2022-11-17T02:48:34.260Z,7.90
2022-11-17T02:51:04.648Z,7.80
2022-11-17T02:53:33.613Z,7.80
2022-11-17T02:56:03.331Z,7.90
2022-11-17T02:58:32.673Z,8.00
2022-11-17T03:01:20.734Z,8.20
2022-11-17T03:04:05.385Z,8.50
2022-11-17T03:06:42.499Z,8.70
2022-11-17T03:09:18.821Z,8.90
2022-11-17T03:11:51.414Z,9.20
2022-11-17T03:14:28.580Z,9.30
2022-11-17T03:17:02.244Z,9.40
2022-11-17T03:19:36.614Z,9.50
2022-11-17T03:22:08.838Z,9.60
2022-11-17T03:24:40.368Z,9.50
2022-11-17T03:27:13.077Z,9.30
2022-11-17T03:29:47.671Z,9.20
2022-11-17T03:32:17.990Z,9.00
2022-11-17T03:34:52.205Z,9.00
2022-11-17T03:37:22.675Z,9.00
2022-11-17T03:39:53.841Z,9.00
2022-11-17T03:42:25.225Z,9.10
2022-11-17T03:44:57.564Z,9.00
2022-11-17T03:47:28.744Z,9.10
2022-11-17T03:50:00.940Z,9.20
2022-11-17T03:52:30.585Z,9.20
2022-11-17T03:54:59.202Z,9.20
2022-11-17T03:57:34.117Z,9.20
2022-11-17T04:00:06.130Z,9.10
2022-11-17T04:02:34.335Z,9.10
2022-11-17T04:05:08.584Z,9.10
2022-11-17T04:07:40.130Z,9.00
2022-11-17T04:10:10.520Z,9.00
2022-11-17T04:12:55.992Z,9.00
2022-11-17T04:15:43.143Z,9.00
2022-11-17T04:18:11.519Z,9.10
2022-11-17T04:20:39.548Z,9.10
2022-11-17T04:23:09.596Z,9.00
2022-11-17T04:25:56.228Z,9.00
2022-11-17T04:28:37.799Z,9.00
2022-11-17T04:31:09.952Z,9.00
2022-11-17T04:33:39.468Z,9.10
2022-11-17T04:36:08.036Z,9.00
2022-11-17T04:38:36.287Z,9.10
2022-11-17T04:41:24.163Z,9.10
2022-11-17T04:43:52.407Z,9.10
2022-11-17T04:46:23.810Z,9.10
2022-11-17T04:48:53.405Z,9.20
2022-11-17T04:51:22.434Z,9.20
2022-11-17T04:53:50.814Z,9.20
2022-11-17T04:56:20.443Z,9.30
2022-11-17T04:58:49.059Z,9.20
2022-11-17T05:01:18.699Z,9.20
2022-11-17T05:03:49.546Z,9.20
2022-11-17T05:06:19.730Z,9.20
2022-11-17T05:08:48.577Z,9.20
2022-11-17T05:11:35.741Z,9.20
2022-11-17T05:14:04.524Z,9.10
2022-11-17T05:16:49.879Z,9.00
2022-11-17T05:19:20.947Z,9.20
2022-11-17T05:21:49.060Z,9.10
2022-11-17T05:24:17.752Z,9.00
2022-11-17T05:26:47.421Z,9.10
2022-11-17T05:29:17.595Z,9.00
2022-11-17T05:31:46.030Z,9.00
2022-11-17T05:34:17.286Z,9.10
2022-11-17T05:36:47.464Z,9.10
2022-11-17T05:39:16.280Z,9.10
2022-11-17T05:41:44.368Z,9.10
2022-11-17T05:44:12.395Z,9.00
2022-11-17T05:46:40.368Z,9.10
2022-11-17T05:49:08.458Z,9.00
2022-11-17T05:51:37.954Z,9.00
2022-11-17T05:54:07.335Z,9.10
2022-11-17T05:56:40.170Z,9.10
2022-11-17T05:59:27.842Z,9.20
2022-11-17T06:02:04.499Z,9.00
2022-11-17T06:04:33.476Z,8.80
2022-11-17T06:07:03.533Z,8.80
2022-11-17T06:09:36.746Z,8.80
2022-11-17T06:12:06.453Z,8.90
2022-11-17T06:14:35.395Z,9.00
2022-11-17T06:17:06.720Z,9.10
2022-11-17T06:19:38.988Z,9.10
2022-11-17T06:22:12.799Z,9.20
2022-11-17T06:24:44.844Z,9.20
2022-11-17T06:27:14.211Z,9.30
2022-11-17T06:29:44.873Z,9.30
2022-11-17T06:32:14.710Z,9.10
2022-11-17T06:34:43.257Z,9.10
2022-11-17T06:37:12.272Z,9.00
2022-11-17T06:39:40.268Z,8.70
2022-11-17T06:42:09.687Z,8.50
2022-11-17T06:44:37.759Z,8.50
2022-11-17T06:47:05.943Z,8.50
2022-11-17T06:49:34.033Z,8.50
2022-11-17T06:52:02.114Z,8.80
2022-11-17T06:54:30.139Z,8.80
2022-11-17T06:56:58.202Z,9.10
2022-11-17T06:59:27.607Z,9.20
2022-11-17T07:01:55.631Z,9.30
2022-11-17T07:04:23.644Z,9.30
2022-11-17T07:06:51.720Z,9.30
2022-11-17T07:09:20.029Z,9.40
2022-11-17T07:11:47.999Z,9.40
2022-11-17T07:14:15.983Z,9.50
2022-11-17T07:16:45.629Z,9.50
2022-11-17T07:19:14.097Z,9.50
2022-11-17T07:21:42.114Z,9.60
2022-11-17T07:24:10.100Z,9.60
2022-11-17T07:26:38.299Z,9.70
2022-11-17T07:29:06.518Z,9.70
2022-11-17T07:31:35.902Z,9.80
2022-11-17T07:34:05.239Z,10.00
2022-11-17T07:36:34.292Z,10.10
2022-11-17T07:39:02.347Z,10.30
2022-11-17T07:41:30.377Z,10.40
2022-11-17T07:43:59.570Z,10.50
2022-11-17T07:46:27.674Z,10.50
2022-11-17T07:48:56.467Z,10.50
2022-11-17T07:51:26.372Z,10.50
2022-11-17T07:53:54.672Z,10.50
2022-11-17T07:56:22.720Z,10.60
2022-11-17T07:58:50.861Z,10.70
2022-11-17T08:01:19.021Z,10.90
2022-11-17T08:03:47.731Z,11.20
2022-11-17T08:06:17.009Z,11.30
2022-11-17T08:08:48.469Z,11.30
2022-11-17T08:11:16.891Z,11.30
2022-11-17T08:13:44.936Z,11.40
2022-11-17T08:16:14.310Z,11.50
2022-11-17T08:18:46.073Z,11.60
2022-11-17T08:21:16.943Z,11.70
2022-11-17T08:23:46.260Z,11.80
2022-11-17T08:26:14.224Z,12.00
2022-11-17T08:28:42.317Z,12.10
2022-11-17T08:31:10.669Z,12.20
2022-11-17T08:33:38.849Z,12.20
2022-11-17T08:36:08.045Z,12.20
2022-11-17T08:38:36.859Z,12.20
2022-11-17T08:41:08.848Z,12.20
2022-11-17T08:43:37.300Z,12.20
2022-11-17T08:46:05.731Z,12.20
2022-11-17T08:48:34.405Z,12.20
2022-11-17T08:51:06.715Z,12.10
2022-11-17T08:53:34.868Z,12.10
2022-11-17T08:56:02.897Z,12.00
2022-11-17T08:58:32.310Z,12.00
2022-11-17T09:01:05.156Z,12.10
2022-11-17T09:03:33.557Z,12.20
2022-11-17T09:06:03.908Z,12.20
2022-11-17T09:08:56.456Z,12.30
2022-11-17T09:11:20.842Z,12.40
2022-11-17T09:13:50.509Z,12.40
2022-11-17T09:16:18.849Z,12.50
2022-11-17T09:18:46.835Z,12.60
2022-11-17T09:21:16.458Z,12.70
2022-11-17T09:23:44.940Z,12.80
2022-11-17T09:26:15.119Z,12.90
2022-11-17T09:28:44.029Z,13.00
2022-11-17T09:31:15.366Z,13.10
2022-11-17T09:33:44.357Z,13.10
2022-11-17T09:36:13.933Z,13.30
2022-11-17T09:38:42.146Z,13.50
2022-11-17T09:41:27.327Z,13.50
2022-11-17T09:44:11.986Z,13.60
2022-11-17T09:46:51.163Z,13.70
2022-11-17T09:49:31.014Z,13.80
2022-11-17T09:52:04.403Z,13.90
2022-11-17T09:54:42.007Z,13.80
2022-11-17T09:57:21.117Z,13.60
2022-11-17T09:59:55.699Z,13.50
2022-11-17T10:02:25.748Z,13.50
2022-11-17T10:04:53.873Z,13.60
2022-11-17T10:07:22.698Z,13.60
2022-11-17T10:09:53.119Z,13.60
2022-11-17T10:12:23.170Z,13.60
2022-11-17T10:14:52.351Z,13.50
2022-11-17T10:17:20.336Z,13.50
2022-11-17T10:19:49.807Z,13.60
2022-11-17T10:22:24.376Z,13.60
2022-11-17T10:24:55.442Z,13.60
2022-11-17T10:27:26.140Z,13.60
2022-11-17T10:30:02.259Z,13.70
2022-11-17T10:32:33.741Z,13.70
2022-11-17T10:35:16.756Z,13.80
2022-11-17T10:37:52.417Z,13.90
2022-11-17T10:40:25.590Z,14.20
2022-11-17T10:43:21.361Z,14.60
2022-11-17T10:45:51.098Z,14.50
2022-11-17T10:48:27.266Z,14.40
2022-11-17T10:50:58.446Z,14.20
2022-11-17T10:53:38.133Z,14.20
2022-11-17T10:56:14.803Z,14.20
2022-11-17T10:59:12.491Z,14.20
2022-11-17T11:01:43.432Z,14.20
2022-11-17T11:04:33.059Z,14.20
2022-11-17T11:07:11.031Z,13.70
2022-11-17T11:09:45.637Z,13.60
2022-11-17T11:12:18.390Z,13.60
2022-11-17T11:14:51.315Z,13.50
2022-11-17T11:17:20.270Z,13.50
2022-11-17T11:19:52.863Z,13.50
2022-11-17T11:22:30.512Z,13.60
2022-11-17T11:25:11.046Z,13.70
2022-11-17T11:27:52.979Z,13.70
2022-11-17T11:30:21.166Z,13.70
2022-11-17T11:33:02.515Z,13.80
2022-11-17T11:35:45.429Z,13.80
2022-11-17T11:38:34.654Z,13.80
2022-11-17T11:41:25.137Z,14.00
2022-11-17T11:44:06.527Z,14.00
2022-11-17T11:46:41.154Z,13.90
2022-11-17T11:49:31.671Z,13.80
2022-11-17T11:52:01.598Z,14.00
2022-11-17T11:54:40.437Z,13.90
2022-11-17T11:57:13.826Z,13.90
2022-11-17T11:59:49.274Z,13.90
2022-11-17T12:02:26.200Z,13.90
2022-11-17T12:05:01.262Z,13.80
2022-11-17T12:07:38.457Z,13.60
2022-11-17T12:10:16.884Z,13.60
2022-11-17T12:12:47.404Z,13.60
2022-11-17T12:15:35.813Z,13.60
2022-11-17T12:18:07.010Z,13.60
2022-11-17T12:20:58.847Z,13.50
2022-11-17T12:24:01.393Z,13.50
2022-11-17T12:26:32.636Z,13.60
2022-11-17T12:29:34.240Z,13.60
2022-11-17T12:32:03.718Z,13.60
2022-11-17T12:34:34.065Z,13.60
2022-11-17T12:37:21.780Z,13.70
2022-11-17T12:40:01.563Z,13.70
2022-11-17T12:42:32.294Z,13.70
2022-11-17T12:45:02.150Z,13.70
2022-11-17T12:47:33.707Z,13.70
2022-11-17T12:50:34.176Z,13.80
2022-11-17T12:53:25.762Z,13.80
2022-11-17T12:56:26.230Z,13.80
2022-11-17T12:59:04.922Z,13.80
2022-11-17T13:01:43.142Z,13.80
2022-11-17T13:04:15.687Z,13.80
2022-11-17T13:06:59.782Z,13.90
2022-11-17T13:09:30.088Z,14.00
2022-11-17T13:12:04.124Z,14.00
2022-11-17T13:14:34.043Z,14.00
2022-11-17T13:17:03.382Z,14.00
2022-11-17T13:19:37.320Z,14.00
2022-11-17T13:22:07.581Z,14.00
2022-11-17T13:24:37.769Z,14.00
2022-11-17T13:27:08.424Z,14.10
2022-11-17T13:29:37.890Z,14.20
2022-11-17T13:32:14.531Z,14.20
2022-11-17T13:34:51.691Z,14.20
2022-11-17T13:37:22.160Z,14.20
2022-11-17T13:39:58.216Z,14.20
2022-11-17T13:42:28.951Z,14.10
2022-11-17T13:45:01.830Z,14.00
2022-11-17T13:47:45.411Z,14.00
2022-11-17T13:50:24.512Z,14.00
2022-11-17T13:52:58.040Z,14.00
2022-11-17T13:55:27.185Z,13.90
2022-11-17T13:57:57.900Z,13.90
2022-11-17T14:00:27.915Z,13.70
2022-11-17T14:02:56.821Z,13.60
2022-11-17T14:05:26.889Z,13.60
2022-11-17T14:07:56.854Z,13.50
2022-11-17T14:10:30.528Z,13.50
2022-11-17T14:13:29.857Z,13.50
2022-11-17T14:16:01.166Z,13.40
2022-11-17T14:18:36.778Z,13.30
2022-11-17T14:21:10.828Z,13.20
2022-11-17T14:23:39.301Z,13.30
2022-11-17T14:26:13.309Z,13.20
2022-11-17T14:28:41.327Z,13.20
2022-11-17T14:31:13.495Z,13.30
2022-11-17T14:33:41.632Z,13.30
2022-11-17T14:36:13.444Z,13.20
2022-11-17T14:38:41.577Z,13.00
2022-11-17T14:41:09.863Z,13.00
2022-11-17T14:43:37.922Z,13.00
2022-11-17T14:46:06.290Z,12.90
2022-11-17T14:48:35.732Z,13.00
2022-11-17T14:51:03.749Z,12.90
2022-11-17T14:53:31.855Z,12.70
2022-11-17T14:56:06.757Z,12.50
2022-11-17T14:58:34.798Z,12.30
2022-11-17T15:01:09.490Z,12.30
2022-11-17T15:03:38.873Z,12.40
2022-11-17T15:06:09.397Z,12.50
2022-11-17T15:08:38.140Z,12.50
2022-11-17T15:11:07.151Z,12.50
2022-11-17T15:13:35.190Z,12.40
2022-11-17T15:16:03.890Z,12.40
2022-11-17T15:18:32.496Z,12.50
2022-11-17T15:21:06.745Z,12.70
2022-11-17T15:23:36.900Z,12.60
2022-11-17T15:26:06.191Z,12.50
2022-11-17T15:28:34.794Z,12.50
2022-11-17T15:31:09.433Z,12.40
2022-11-17T15:33:39.385Z,12.30
2022-11-17T15:36:10.249Z,12.20
2022-11-17T15:38:39.376Z,12.10
2022-11-17T15:41:08.576Z,12.10
2022-11-17T15:43:38.969Z,12.00
2022-11-17T15:46:08.572Z,12.00
2022-11-17T15:48:42.882Z,11.90
2022-11-17T15:51:14.487Z,11.80
2022-11-17T15:53:43.395Z,11.70
2022-11-17T15:56:13.093Z,11.50
2022-11-17T15:58:42.330Z,11.40
2022-11-17T16:01:12.091Z,11.30
2022-11-17T16:03:41.169Z,11.30
2022-11-17T16:06:09.565Z,11.30
2022-11-17T16:08:39.351Z,11.30
2022-11-17T16:11:07.910Z,11.30
2022-11-17T16:13:35.980Z,11.30
2022-11-17T16:16:04.782Z,11.20
2022-11-17T16:18:34.535Z,11.20
2022-11-17T16:21:06.978Z,11.10
2022-11-17T16:23:40.707Z,10.90
2022-11-17T16:26:09.225Z,10.70
2022-11-17T16:28:37.610Z,10.50
2022-11-17T16:31:15.875Z,10.50
2022-11-17T16:33:49.182Z,10.50
2022-11-17T16:36:17.589Z,10.30
2022-11-17T16:39:00.429Z,10.30
2022-11-17T16:41:32.031Z,10.40
2022-11-17T16:44:00.384Z,10.50
2022-11-17T16:46:30.239Z,10.40
2022-11-17T16:49:01.831Z,10.30
2022-11-17T16:51:33.714Z,10.50
2022-11-17T16:54:04.896Z,10.80
2022-11-17T16:56:34.702Z,10.70
2022-11-17T16:59:03.277Z,10.80
2022-11-17T17:01:35.482Z,10.80
2022-11-17T17:04:06.369Z,10.70
2022-11-17T17:06:35.381Z,10.60
2022-11-17T17:09:07.255Z,10.60
2022-11-17T17:11:36.936Z,10.60
2022-11-17T17:14:08.302Z,10.70
2022-11-17T17:16:38.596Z,10.80
2022-11-17T17:19:08.375Z,10.70
2022-11-17T17:21:37.953Z,10.60
2022-11-17T17:24:08.682Z,10.40
2022-11-17T17:26:37.880Z,10.10
2022-11-17T17:29:07.146Z,10.00
2022-11-17T17:31:36.878Z,9.80
2022-11-17T17:34:06.203Z,9.80
2022-11-17T17:36:35.297Z,10.00
2022-11-17T17:39:03.954Z,10.30
2022-11-17T17:41:35.353Z,10.50
2022-11-17T17:44:05.063Z,10.60
2022-11-17T17:46:36.299Z,10.80
2022-11-17T17:49:04.982Z,10.80
2022-11-17T17:51:33.127Z,10.80
2022-11-17T17:54:02.038Z,10.80
2022-11-17T17:56:31.444Z,10.90
2022-11-17T17:59:01.024Z,10.90
2022-11-17T18:01:30.410Z,10.90
2022-11-17T18:04:04.266Z,10.80
2022-11-17T18:06:36.519Z,10.80
2022-11-17T18:09:05.171Z,10.90
2022-11-17T18:11:33.731Z,11.00
2022-11-17T18:14:03.839Z,11.00
2022-11-17T18:16:33.808Z,11.10
2022-11-17T18:19:03.555Z,11.10
2022-11-17T18:21:32.306Z,11.10
2022-11-17T18:24:01.426Z,11.20
2022-11-17T18:26:32.234Z,11.20
2022-11-17T18:29:02.781Z,11.20
2022-11-17T18:31:32.533Z,11.10
2022-11-17T18:34:02.125Z,11.10
2022-11-17T18:36:30.591Z,11.10
2022-11-17T18:38:58.993Z,11.00
2022-11-17T18:41:30.712Z,10.90
2022-11-17T18:43:59.225Z,10.90
2022-11-17T18:46:30.675Z,10.90
2022-11-17T18:48:59.825Z,10.90
2022-11-17T18:51:30.455Z,10.90
2022-11-17T18:53:59.993Z,10.90
2022-11-17T18:56:31.779Z,11.10
2022-11-17T18:59:00.477Z,11.10
2022-11-17T19:01:31.505Z,11.10
2022-11-17T19:04:01.368Z,11.20
2022-11-17T19:06:30.151Z,11.30
2022-11-17T19:08:59.573Z,11.40
2022-11-17T19:11:30.644Z,11.50
2022-11-17T19:14:02.159Z,11.60
2022-11-17T19:16:32.500Z,11.70
2022-11-17T19:19:01.183Z,11.80
2022-11-17T19:21:31.068Z,11.80
2022-11-17T19:24:01.508Z,11.80
2022-11-17T19:26:31.910Z,11.90
2022-11-17T19:29:01.466Z,11.80
2022-11-17T19:31:31.529Z,11.70
2022-11-17T19:34:00.265Z,11.60
2022-11-17T19:36:30.496Z,11.60
2022-11-17T19:39:00.388Z,11.80
2022-11-17T19:41:30.450Z,11.80
2022-11-17T19:44:00.065Z,11.90
2022-11-17T19:46:29.725Z,11.70
2022-11-17T19:48:59.893Z,11.30
2022-11-17T19:51:30.660Z,11.10
2022-11-17T19:54:01.821Z,10.90
2022-11-17T19:56:30.659Z,10.60
2022-11-17T19:58:59.527Z,10.50
2022-11-17T20:01:29.400Z,10.40
2022-11-17T20:04:00.082Z,10.20
2022-11-17T20:06:30.473Z,10.00
2022-11-17T20:08:59.113Z,9.90
2022-11-17T20:11:29.331Z,9.70
2022-11-17T20:13:57.874Z,9.60
2022-11-17T20:16:27.366Z,9.50
2022-11-17T20:19:00.439Z,9.40
2022-11-17T20:21:29.841Z,9.30
2022-11-17T20:24:01.142Z,9.20
2022-11-17T20:26:31.871Z,9.20
2022-11-17T20:29:01.073Z,9.10
2022-11-17T20:31:31.703Z,9.10
2022-11-17T20:34:02.438Z,9.10
2022-11-17T20:36:32.084Z,9.10
2022-11-17T20:39:01.724Z,9.10
2022-11-17T20:41:30.544Z,9.10
2022-11-17T20:44:00.782Z,9.00
2022-11-17T20:46:29.110Z,9.10
2022-11-17T20:48:57.149Z,9.10
2022-11-17T20:51:27.160Z,9.00
2022-11-17T20:53:55.203Z,9.00
2022-11-17T20:56:23.327Z,8.90
2022-11-17T20:58:51.415Z,8.90
2022-11-17T21:01:21.540Z,8.90
2022-11-17T21:03:49.838Z,8.90
2022-11-17T21:06:18.329Z,8.90
2022-11-17T21:08:49.224Z,8.80
2022-11-17T21:11:33.158Z,8.80
2022-11-17T21:14:01.916Z,8.80
2022-11-17T21:16:30.160Z,8.80
2022-11-17T21:18:58.400Z,8.70
2022-11-17T21:21:26.811Z,8.80
2022-11-17T21:23:57.446Z,8.80
2022-11-17T21:26:25.706Z,8.80
2022-11-17T21:28:53.838Z,8.70
2022-11-17T21:31:25.943Z,8.80
2022-11-17T21:33:55.683Z,8.80
2022-11-17T21:36:25.445Z,8.80
2022-11-17T21:38:54.201Z,8.80
2022-11-17T21:41:25.319Z,8.90
2022-11-17T21:43:54.518Z,8.80
2022-11-17T21:46:24.853Z,8.70
2022-11-17T21:48:54.393Z,8.70
2022-11-17T21:51:23.830Z,8.70
2022-11-17T21:53:54.071Z,8.70
2022-11-17T21:56:26.519Z,8.70
2022-11-17T21:58:55.626Z,8.60
2022-11-17T22:01:24.208Z,8.60
2022-11-17T22:03:52.418Z,8.70
2022-11-17T22:06:22.816Z,8.60
2022-11-17T22:08:51.405Z,8.60
2022-11-17T22:11:35.218Z,8.60
2022-11-17T22:14:07.319Z,8.60
2022-11-17T22:16:35.992Z,8.60
2022-11-17T22:19:04.377Z,8.60
2022-11-17T22:21:32.493Z,8.60
2022-11-17T22:24:00.674Z,8.50
2022-11-17T22:26:28.800Z,8.50
2022-11-17T22:28:57.426Z,8.60
2022-11-17T22:31:26.780Z,8.60
2022-11-17T22:33:54.829Z,8.60
2022-11-17T22:36:23.011Z,8.50
2022-11-17T22:38:52.231Z,8.50
2022-11-17T22:41:21.093Z,8.50
2022-11-17T22:43:52.831Z,8.60
2022-11-17T22:46:21.988Z,8.60
2022-11-17T22:48:51.362Z,8.50
2022-11-17T22:51:33.858Z,8.40
2022-11-17T22:54:01.870Z,8.40
2022-11-17T22:56:30.062Z,8.40
2022-11-17T22:58:59.879Z,8.30
2022-11-17T23:01:28.300Z,8.20
2022-11-17T23:03:58.487Z,8.10
2022-11-17T23:06:27.485Z,8.00
2022-11-17T23:08:55.822Z,8.00
2022-11-17T23:11:39.552Z,8.10
2022-11-17T23:14:10.101Z,8.00
2022-11-17T23:16:38.606Z,8.00
2022-11-17T23:19:09.375Z,8.10
2022-11-17T23:21:37.380Z,8.10
2022-11-17T23:24:06.139Z,8.10
2022-11-17T23:26:34.186Z,8.10
2022-11-17T23:29:02.177Z,8.10
2022-11-17T23:31:30.367Z,8.10
2022-11-17T23:33:58.398Z,8.10
2022-11-17T23:36:28.180Z,8.20
2022-11-17T23:38:57.544Z,8.20
2022-11-17T23:41:25.751Z,8.10
2022-11-17T23:43:54.984Z,8.10
2022-11-17T23:46:27.236Z,8.10
2022-11-17T23:48:56.194Z,8.10
2022-11-17T23:51:25.903Z,8.00
2022-11-17T23:53:55.233Z,8.10
2022-11-17T23:56:23.713Z,8.10
2022-11-17T23:58:52.620Z,8.10
